createdAt,value
2016-08-20T00:00:23.963Z,1000.51
2016-08-20T00:01:23.943Z,1000.45
2016-08-20T00:02:23.924Z,1000.44
2016-08-20T00:03:23.906Z,1000.46
2016-08-20T00:04:23.887Z,1000.39
2016-08-20T00:05:23.866Z,1000.35
2016-08-20T00:06:23.847Z,1000.31
2016-08-20T00:07:23.829Z,1000.3
2016-08-20T00:08:23.811Z,1000.27
2016-08-20T00:09:23.790Z,1000.25
2016-08-20T00:10:23.772Z,1000.23
2016-08-20T00:11:23.752Z,1000.18
2016-08-20T00:12:23.733Z,1000.15
2016-08-20T00:13:23.714Z,1000.06
2016-08-20T00:14:23.695Z,1000.05
2016-08-20T00:15:23.677Z,1000.08
2016-08-20T00:16:23.656Z,1000.01
2016-08-20T00:17:23.637Z,1000.03
2016-08-20T00:18:23.620Z,1000.06
2016-08-20T00:19:23.600Z,1000.04
2016-08-20T00:20:23.579Z,1000.04
2016-08-20T00:21:23.560Z,1000.09
2016-08-20T00:22:23.542Z,1000.05
2016-08-20T00:23:23.523Z,1000.05
2016-08-20T00:24:23.502Z,1000.03
2016-08-20T00:25:23.484Z,1000.08
2016-08-20T00:26:23.465Z,1000.09
2016-08-20T00:27:23.445Z,1000.1
2016-08-20T00:28:23.428Z,1000.08
2016-08-20T00:29:23.406Z,1000.03
2016-08-20T00:30:23.388Z,1000.12
2016-08-20T00:31:23.387Z,1000.08
2016-08-20T00:32:23.348Z,1000.08
2016-08-20T00:33:23.330Z,1000.05
2016-08-20T00:34:23.309Z,1000.03
2016-08-20T00:35:23.291Z,1000.03
2016-08-20T00:36:23.271Z,1000.08
2016-08-20T00:37:23.252Z,1000.06
2016-08-20T00:38:23.231Z,1000.03
2016-08-20T00:39:23.213Z,1000.05
2016-08-20T00:40:23.193Z,1000.06
2016-08-20T00:41:23.174Z,1000.03
2016-08-20T00:42:23.153Z,1000.08
2016-08-20T00:43:23.134Z,1000.02
2016-08-20T00:44:23.115Z,999.99
2016-08-20T00:45:23.095Z,999.97
2016-08-20T00:46:23.076Z,1000.04
2016-08-20T00:47:23.056Z,1000.05
2016-08-20T00:48:23.036Z,1000.04
2016-08-20T00:49:23.016Z,1000.07
2016-08-20T00:50:22.996Z,1000.05
2016-08-20T00:51:22.977Z,1000.01
2016-08-20T00:52:22.957Z,1000.07
2016-08-20T00:53:22.938Z,1000
2016-08-20T00:54:22.917Z,1000.01
2016-08-20T00:55:22.898Z,999.96
2016-08-20T00:56:22.879Z,999.93
2016-08-20T00:57:22.858Z,999.92
2016-08-20T00:58:22.839Z,999.92
2016-08-20T00:59:22.819Z,999.94
2016-08-20T01:00:22.799Z,999.91
2016-08-20T01:01:22.780Z,999.92
2016-08-20T01:02:22.760Z,999.91
2016-08-20T01:03:22.743Z,999.94
2016-08-20T01:04:22.721Z,999.92
2016-08-20T01:05:22.701Z,999.91
2016-08-20T01:06:22.683Z,999.96
2016-08-20T01:07:22.663Z,999.91
2016-08-20T01:08:22.645Z,999.93
2016-08-20T01:09:22.625Z,999.93
2016-08-20T01:10:22.606Z,999.88
2016-08-20T01:11:22.585Z,999.86
2016-08-20T01:12:22.566Z,999.97
2016-08-20T01:13:22.546Z,999.88
2016-08-20T01:14:22.527Z,999.89
2016-08-20T01:15:22.508Z,999.91
2016-08-20T01:16:22.489Z,999.93
2016-08-20T01:17:22.470Z,999.93
2016-08-20T01:18:22.448Z,999.91
2016-08-20T01:19:22.428Z,999.95
2016-08-20T01:20:22.410Z,999.94
2016-08-20T01:21:22.391Z,999.97
2016-08-20T01:22:22.371Z,999.9
2016-08-20T01:23:22.357Z,999.96
2016-08-20T01:24:22.332Z,999.98
2016-08-20T01:25:22.314Z,999.94
2016-08-20T01:26:22.293Z,999.97
2016-08-20T01:27:22.275Z,1000
2016-08-20T01:28:22.255Z,999.98
2016-08-20T01:29:22.238Z,999.95
2016-08-20T01:30:22.216Z,999.99
2016-08-20T01:31:22.197Z,1000.03
2016-08-20T01:32:22.177Z,1000.01
2016-08-20T01:33:22.158Z,999.93
2016-08-20T01:34:22.138Z,999.99
2016-08-20T01:35:22.119Z,999.99
2016-08-20T01:36:22.100Z,1000.03
2016-08-20T01:37:22.081Z,1000.04
2016-08-20T01:38:22.062Z,1000.06
2016-08-20T01:39:22.041Z,1000.06
2016-08-20T01:40:22.023Z,1000.07
2016-08-20T01:41:22.003Z,999.99
2016-08-20T01:42:21.985Z,1000.01
2016-08-20T01:43:21.966Z,1000.02
2016-08-20T01:44:21.945Z,1000.02
2016-08-20T01:45:21.927Z,1000.03
2016-08-20T01:46:21.907Z,999.97
2016-08-20T01:47:21.888Z,1000.02
2016-08-20T01:48:21.867Z,1000.05
2016-08-20T01:49:21.848Z,1000.04
2016-08-20T01:50:21.830Z,999.99
2016-08-20T01:51:21.811Z,1000.04
2016-08-20T01:52:21.792Z,1000.05
2016-08-20T01:53:21.773Z,1000.01
2016-08-20T01:54:21.753Z,1000.01
2016-08-20T01:55:21.733Z,1000.01
2016-08-20T01:56:21.719Z,1000.04
2016-08-20T01:57:21.695Z,1000
2016-08-20T01:58:21.675Z,1000.01
2016-08-20T01:59:21.656Z,1000.03
2016-08-20T02:00:21.636Z,999.98
2016-08-20T02:01:21.617Z,999.98
2016-08-20T02:02:21.597Z,1000
2016-08-20T02:03:21.579Z,1000.03
2016-08-20T02:04:21.559Z,999.99
2016-08-20T02:05:21.540Z,999.99
2016-08-20T02:06:21.520Z,1000.01
2016-08-20T02:07:21.501Z,999.96
2016-08-20T02:08:21.486Z,999.98
2016-08-20T02:09:21.463Z,999.97
2016-08-20T02:10:21.443Z,999.96
2016-08-20T02:11:21.425Z,1000
2016-08-20T02:12:21.407Z,999.97
2016-08-20T02:13:21.385Z,1000.02
2016-08-20T02:14:21.366Z,1000
2016-08-20T02:15:21.349Z,1000.03
2016-08-20T02:16:21.334Z,1000.07
2016-08-20T02:17:21.310Z,1000.04
2016-08-20T02:18:21.289Z,1000.05
2016-08-20T02:19:21.270Z,1000.06
2016-08-20T02:20:21.253Z,1000.06
2016-08-20T02:21:21.230Z,1000.08
2016-08-20T02:22:21.212Z,1000.05
2016-08-20T02:23:21.194Z,1000.05
2016-08-20T02:24:21.173Z,1000.07
2016-08-20T02:25:21.155Z,1000.08
2016-08-20T02:26:21.136Z,1000.04
2016-08-20T02:27:21.117Z,1000.04
2016-08-20T02:28:21.097Z,1000.02
2016-08-20T02:29:21.077Z,1000.03
2016-08-20T02:30:21.060Z,1000.06
2016-08-20T02:31:21.041Z,1000.09
2016-08-20T02:32:21.020Z,1000.04
2016-08-20T02:33:21.001Z,1000.09
2016-08-20T02:34:20.982Z,1000.1
2016-08-20T02:35:20.961Z,1000.1
2016-08-20T02:36:20.943Z,1000.12
2016-08-20T02:37:20.924Z,1000.14
2016-08-20T02:38:20.905Z,1000.1
2016-08-20T02:39:20.886Z,1000.11
2016-08-20T02:40:20.868Z,1000.14
2016-08-20T02:41:20.849Z,1000.1
2016-08-20T02:42:20.829Z,1000.14
2016-08-20T02:43:20.811Z,1000.18
2016-08-20T02:44:20.790Z,1000.16
2016-08-20T02:45:20.773Z,1000.19
2016-08-20T02:46:20.752Z,1000.15
2016-08-20T02:47:20.733Z,1000.16
2016-08-20T02:48:20.714Z,1000.18
2016-08-20T02:49:20.694Z,1000.17
2016-08-20T02:50:20.675Z,1000.12
2016-08-20T02:51:20.656Z,1000.16
2016-08-20T02:52:20.637Z,1000.14
2016-08-20T02:53:20.617Z,1000.13
2016-08-20T02:54:20.598Z,1000.15
2016-08-20T02:55:20.579Z,1000.12
2016-08-20T02:56:20.562Z,1000.1
2016-08-20T02:57:20.541Z,1000.12
2016-08-20T02:58:20.525Z,1000.11
2016-08-20T02:59:20.501Z,1000.11
2016-08-20T03:00:20.483Z,1000.11
2016-08-20T03:01:20.463Z,1000.1
2016-08-20T03:02:20.445Z,1000.13
2016-08-20T03:03:20.425Z,1000.13
2016-08-20T03:04:20.405Z,1000.09
2016-08-20T03:05:20.388Z,1000.13
2016-08-20T03:06:20.374Z,1000.09
2016-08-20T03:07:20.349Z,1000.1
2016-08-20T03:08:20.329Z,1000.08
2016-08-20T03:09:20.310Z,1000.09
2016-08-20T03:10:20.292Z,1000.08
2016-08-20T03:11:20.273Z,1000.09
2016-08-20T03:12:20.253Z,1000.07
2016-08-20T03:13:20.234Z,1000.1
2016-08-20T03:14:20.214Z,1000.11
2016-08-20T03:15:20.193Z,1000.12
2016-08-20T03:16:20.176Z,1000.1
2016-08-20T03:17:20.156Z,1000.08
2016-08-20T03:18:20.136Z,1000.09
2016-08-20T03:19:20.116Z,1000.11
2016-08-20T03:20:20.098Z,1000.1
2016-08-20T03:21:20.079Z,1000.12
2016-08-20T03:22:20.060Z,1000.1
2016-08-20T03:23:20.040Z,1000.11
2016-08-20T03:24:20.020Z,1000.1
2016-08-20T03:25:20.002Z,1000.11
2016-08-20T03:26:19.982Z,1000.16
2016-08-20T03:27:19.962Z,1000.16
2016-08-20T03:28:19.943Z,1000.15
2016-08-20T03:29:19.924Z,1000.16
2016-08-20T03:30:19.904Z,1000.16
2016-08-20T03:31:19.886Z,1000.16
2016-08-20T03:32:19.866Z,1000.15
2016-08-20T03:33:19.847Z,1000.18
2016-08-20T03:34:19.828Z,1000.2
2016-08-20T03:35:19.810Z,1000.17
2016-08-20T03:36:19.793Z,1000.2
2016-08-20T03:37:19.769Z,1000.23
2016-08-20T03:38:19.750Z,1000.16
2016-08-20T03:39:19.732Z,1000.22
2016-08-20T03:40:19.712Z,1000.22
2016-08-20T03:41:19.693Z,1000.19
2016-08-20T03:42:19.671Z,1000.24
2016-08-20T03:43:19.653Z,1000.25
2016-08-20T03:44:19.634Z,1000.31
2016-08-20T03:45:19.617Z,1000.23
2016-08-20T03:46:19.595Z,1000.28
2016-08-20T03:47:19.577Z,1000.27
2016-08-20T03:48:19.557Z,1000.32
2016-08-20T03:49:19.537Z,1000.34
2016-08-20T03:50:19.519Z,1000.3
2016-08-20T03:51:19.502Z,1000.27
2016-08-20T03:52:19.478Z,1000.3
2016-08-20T03:53:19.459Z,1000.29
2016-08-20T03:54:19.441Z,1000.38
2016-08-20T03:55:19.421Z,1000.32
2016-08-20T03:56:19.400Z,1000.35
2016-08-20T03:57:19.382Z,1000.37
2016-08-20T03:58:19.363Z,1000.36
2016-08-20T03:59:19.343Z,1000.29
2016-08-20T04:00:19.323Z,1000.34
2016-08-20T04:01:19.305Z,1000.36
2016-08-20T04:02:19.284Z,1000.32
2016-08-20T04:03:19.265Z,1000.38
2016-08-20T04:04:19.250Z,1000.32
2016-08-20T04:05:19.226Z,1000.29
2016-08-20T04:06:19.209Z,1000.31
2016-08-20T04:07:19.187Z,1000.35
2016-08-20T04:08:19.170Z,1000.32
2016-08-20T04:09:19.150Z,1000.36
2016-08-20T04:10:19.128Z,1000.34
2016-08-20T04:11:19.110Z,1000.35
2016-08-20T04:12:19.092Z,1000.35
2016-08-20T04:13:19.070Z,1000.31
2016-08-20T04:14:19.053Z,1000.3
2016-08-20T04:15:19.033Z,1000.34
2016-08-20T04:16:19.014Z,1000.37
2016-08-20T04:17:18.994Z,1000.35
2016-08-20T04:18:18.976Z,1000.35
2016-08-20T04:19:18.957Z,1000.41
2016-08-20T04:20:18.937Z,1000.41
2016-08-20T04:21:18.917Z,1000.44
2016-08-20T04:22:18.897Z,1000.46
2016-08-20T04:23:18.878Z,1000.35
2016-08-20T04:24:18.859Z,1000.41
2016-08-20T04:25:18.839Z,1000.42
2016-08-20T04:26:18.819Z,1000.42
2016-08-20T04:27:18.800Z,1000.45
2016-08-20T04:28:18.780Z,1000.46
2016-08-20T04:29:18.761Z,1000.43
2016-08-20T04:30:18.742Z,1000.45
2016-08-20T04:31:18.723Z,1000.45
2016-08-20T04:32:18.703Z,1000.42
2016-08-20T04:33:18.684Z,1000.43
2016-08-20T04:34:18.664Z,1000.37
2016-08-20T04:35:18.646Z,1000.37
2016-08-20T04:36:18.626Z,1000.35
2016-08-20T04:37:18.606Z,1000.32
2016-08-20T04:38:18.587Z,1000.29
2016-08-20T04:39:18.568Z,1000.3
2016-08-20T04:40:18.548Z,1000.29
2016-08-20T04:41:18.529Z,1000.29
2016-08-20T04:42:18.510Z,1000.27
2016-08-20T04:43:18.490Z,1000.32
2016-08-20T04:44:18.470Z,1000.33
2016-08-20T04:45:18.450Z,1000.34
2016-08-20T04:46:18.433Z,1000.37
2016-08-20T04:47:18.412Z,1000.33
2016-08-20T04:48:18.393Z,1000.32
2016-08-20T04:49:18.374Z,1000.33
2016-08-20T04:50:18.353Z,1000.36
2016-08-20T04:51:18.335Z,1000.36
2016-08-20T04:52:18.317Z,1000.35
2016-08-20T04:53:18.297Z,1000.39
2016-08-20T04:54:18.278Z,1000.4
2016-08-20T04:55:18.259Z,1000.37
2016-08-20T04:56:18.238Z,1000.36
2016-08-20T04:57:18.219Z,1000.34
2016-08-20T04:58:18.200Z,1000.37
2016-08-20T04:59:18.180Z,1000.41
2016-08-20T05:00:18.162Z,1000.41
2016-08-20T05:01:18.141Z,1000.45
2016-08-20T05:02:18.124Z,1000.5
2016-08-20T05:03:18.103Z,1000.45
2016-08-20T05:04:18.083Z,1000.49
2016-08-20T05:05:18.066Z,1000.46
2016-08-20T05:06:18.045Z,1000.45
2016-08-20T05:07:18.027Z,1000.45
2016-08-20T05:08:18.008Z,1000.48
2016-08-20T05:09:17.987Z,1000.48
2016-08-20T05:10:17.970Z,1000.45
2016-08-20T05:11:17.950Z,1000.47
2016-08-20T05:12:17.931Z,1000.46
2016-08-20T05:13:17.911Z,1000.46
2016-08-20T05:14:17.892Z,1000.47
2016-08-20T05:15:17.874Z,1000.51
2016-08-20T05:16:17.855Z,1000.54
2016-08-20T05:17:17.834Z,1000.52
2016-08-20T05:18:17.816Z,1000.47
2016-08-20T05:19:17.797Z,1000.52
2016-08-20T05:20:17.778Z,1000.47
2016-08-20T05:21:17.759Z,1000.5
2016-08-20T05:22:17.740Z,1000.52
2016-08-20T05:23:17.721Z,1000.55
2016-08-20T05:24:17.702Z,1000.56
2016-08-20T05:25:17.684Z,1000.59
2016-08-20T05:26:17.664Z,1000.6
2016-08-20T05:27:17.646Z,1000.56
2016-08-20T05:28:17.626Z,1000.52
2016-08-20T05:29:17.607Z,1000.53
2016-08-20T05:30:17.588Z,1000.53
2016-08-20T05:31:17.569Z,1000.53
2016-08-20T05:32:17.552Z,1000.53
2016-08-20T05:33:17.532Z,1000.53
2016-08-20T05:34:17.513Z,1000.52
2016-08-20T05:35:17.495Z,1000.53
2016-08-20T05:36:17.475Z,1000.54
2016-08-20T05:37:17.458Z,1000.53
2016-08-20T05:38:17.438Z,1000.5
2016-08-20T05:39:17.420Z,1000.55
2016-08-20T05:40:17.403Z,1000.55
2016-08-20T05:41:17.383Z,1000.53
2016-08-20T05:42:17.364Z,1000.5
2016-08-20T05:43:17.346Z,1000.5
2016-08-20T05:44:17.327Z,1000.49
2016-08-20T05:45:17.308Z,1000.5
2016-08-20T05:46:17.289Z,1000.49
2016-08-20T05:47:17.272Z,1000.48
2016-08-20T05:48:17.255Z,1000.48
2016-08-20T05:49:17.235Z,1000.48
2016-08-20T05:50:17.216Z,1000.47
2016-08-20T05:51:17.200Z,1000.42
2016-08-20T05:52:17.182Z,1000.44
2016-08-20T05:53:17.163Z,1000.44
2016-08-20T05:54:17.145Z,1000.51
2016-08-20T05:55:17.128Z,1000.49
2016-08-20T05:56:17.111Z,1000.53
2016-08-20T05:57:17.089Z,1000.54
2016-08-20T05:58:17.072Z,1000.6
2016-08-20T05:59:17.055Z,1000.61
2016-08-20T06:00:17.036Z,1000.54
2016-08-20T06:01:17.019Z,1000.61
2016-08-20T06:02:17.000Z,1000.62
2016-08-20T06:03:16.982Z,1000.66
2016-08-20T06:04:16.965Z,1000.66
2016-08-20T06:05:16.948Z,1000.63
2016-08-20T06:06:16.933Z,1000.7
2016-08-20T06:07:16.913Z,1000.65
2016-08-20T06:08:16.894Z,1000.67
2016-08-20T06:09:16.878Z,1000.67
2016-08-20T06:10:16.860Z,1000.66
2016-08-20T06:11:16.841Z,1000.62
2016-08-20T06:12:16.824Z,1000.65
2016-08-20T06:13:16.807Z,1000.65
2016-08-20T06:14:16.789Z,1000.68
2016-08-20T06:15:16.772Z,1000.63
2016-08-20T06:16:16.755Z,1000.59
2016-08-20T06:17:16.738Z,1000.64
2016-08-20T06:18:16.720Z,1000.58
2016-08-20T06:19:16.703Z,1000.56
2016-08-20T06:20:16.687Z,1000.51
2016-08-20T06:21:16.672Z,1000.5
2016-08-20T06:22:16.651Z,1000.5
2016-08-20T06:23:16.634Z,1000.5
2016-08-20T06:24:16.616Z,1000.5
2016-08-20T06:25:16.600Z,1000.55
2016-08-20T06:26:16.584Z,1000.51
2016-08-20T06:27:16.570Z,1000.52
2016-08-20T06:28:16.548Z,1000.55
2016-08-20T06:29:16.531Z,1000.5
2016-08-20T06:30:16.513Z,1000.55
2016-08-20T06:31:16.497Z,1000.57
2016-08-20T06:32:16.480Z,1000.51
2016-08-20T06:33:16.471Z,1000.56
2016-08-20T06:34:16.446Z,1000.6
2016-08-20T06:35:16.428Z,1000.6
2016-08-20T06:36:16.410Z,1000.59
2016-08-20T06:37:16.394Z,1000.61
2016-08-20T06:38:16.378Z,1000.61
2016-08-20T06:39:16.360Z,1000.66
2016-08-20T06:40:16.343Z,1000.69
2016-08-20T06:41:16.326Z,1000.66
2016-08-20T06:42:16.308Z,1000.7
2016-08-20T06:43:16.293Z,1000.67
2016-08-20T06:44:16.274Z,1000.62
2016-08-20T06:45:16.257Z,1000.67
2016-08-20T06:46:16.243Z,1000.66
2016-08-20T06:47:16.223Z,1000.72
2016-08-20T06:48:16.208Z,1000.73
2016-08-20T06:49:16.190Z,1000.68
2016-08-20T06:50:16.174Z,1000.8
2016-08-20T06:51:16.156Z,1000.84
2016-08-20T06:52:16.140Z,1000.83
2016-08-20T06:53:16.123Z,1000.79
2016-08-20T06:54:16.108Z,1000.79
2016-08-20T06:55:16.089Z,1000.84
2016-08-20T06:56:16.074Z,1000.86
2016-08-20T06:57:16.057Z,1000.87
2016-08-20T06:58:16.044Z,1000.85
2016-08-20T06:59:16.022Z,1000.88
2016-08-20T07:00:16.008Z,1000.86
2016-08-20T07:01:15.988Z,1000.95
2016-08-20T07:02:15.972Z,1000.91
2016-08-20T07:03:15.957Z,1000.93
2016-08-20T07:04:15.940Z,1000.99
2016-08-20T07:05:15.923Z,1000.99
2016-08-20T07:06:15.905Z,1000.95
2016-08-20T07:07:15.890Z,1000.97
2016-08-20T07:08:15.874Z,1000.95
2016-08-20T07:09:15.859Z,1000.96
2016-08-20T07:10:15.840Z,1000.95
2016-08-20T07:11:15.824Z,1000.92
2016-08-20T07:12:15.809Z,1000.92
2016-08-20T07:13:15.791Z,1000.92
2016-08-20T07:14:15.777Z,1000.92
2016-08-20T07:15:15.760Z,1000.94
2016-08-20T07:16:15.744Z,1000.94
2016-08-20T07:17:15.727Z,1000.92
2016-08-20T07:18:15.717Z,1001.02
2016-08-20T07:19:15.698Z,1000.95
2016-08-20T07:20:15.680Z,1000.94
2016-08-20T07:21:15.665Z,1000.98
2016-08-20T07:22:15.650Z,1000.96
2016-08-20T07:23:15.634Z,1001.01
2016-08-20T07:24:15.618Z,1001
2016-08-20T07:25:15.602Z,1000.96
2016-08-20T07:26:15.589Z,1000.98
2016-08-20T07:27:15.572Z,1000.91
2016-08-20T07:28:15.558Z,1000.88
2016-08-20T07:29:15.542Z,1000.88
2016-08-20T07:30:15.528Z,1000.86
2016-08-20T07:31:15.514Z,1000.85
2016-08-20T07:32:15.495Z,1000.89
2016-08-20T07:33:15.480Z,1000.92
2016-08-20T07:34:15.469Z,1000.94
2016-08-20T07:35:15.455Z,1000.99
2016-08-20T07:36:15.432Z,1001
2016-08-20T07:37:15.417Z,1001.02
2016-08-20T07:38:15.402Z,1001.02
2016-08-20T07:39:15.387Z,1001.01
2016-08-20T07:40:15.370Z,1001
2016-08-20T07:41:15.355Z,1000.98
2016-08-20T07:42:15.338Z,1001.04
2016-08-20T07:43:15.324Z,1000.98
2016-08-20T07:44:15.307Z,1001
2016-08-20T07:45:15.293Z,1001.03
2016-08-20T07:46:15.276Z,1001.04
2016-08-20T07:47:15.262Z,1001.06
2016-08-20T07:48:15.246Z,1001.05
2016-08-20T07:49:15.228Z,1001.07
2016-08-20T07:50:15.219Z,1001.08
2016-08-20T07:51:15.197Z,1001.08
2016-08-20T07:52:15.199Z,1001.14
2016-08-20T07:53:15.167Z,1001.13
2016-08-20T07:54:15.151Z,1001.2
2016-08-20T07:55:15.135Z,1001.21
2016-08-20T07:56:15.123Z,1001.17
2016-08-20T07:57:15.215Z,1001.23
2016-08-20T07:58:15.090Z,1001.19
2016-08-20T07:59:15.085Z,1001.23
2016-08-20T08:00:15.111Z,1001.22
2016-08-20T08:01:15.042Z,1001.21
2016-08-20T08:02:15.027Z,1001.25
2016-08-20T08:03:15.012Z,1001.29
2016-08-20T08:04:14.995Z,1001.29
2016-08-20T08:05:14.980Z,1001.3
2016-08-20T08:06:15.178Z,1001.38
2016-08-20T08:07:14.951Z,1001.37
2016-08-20T08:08:14.935Z,1001.37
2016-08-20T08:09:14.920Z,1001.36
2016-08-20T08:10:14.905Z,1001.4
2016-08-20T08:11:14.887Z,1001.42
2016-08-20T08:12:14.873Z,1001.39
2016-08-20T08:13:14.859Z,1001.36
2016-08-20T08:14:14.843Z,1001.34
2016-08-20T08:15:14.825Z,1001.32
2016-08-20T08:16:14.811Z,1001.39
2016-08-20T08:17:14.795Z,1001.4
2016-08-20T08:18:14.780Z,1001.41
2016-08-20T08:19:14.764Z,1001.39
2016-08-20T08:20:14.748Z,1001.4
2016-08-20T08:21:14.733Z,1001.45
2016-08-20T08:22:14.717Z,1001.45
2016-08-20T08:23:14.701Z,1001.46
2016-08-20T08:24:14.687Z,1001.42
2016-08-20T08:25:14.671Z,1001.48
2016-08-20T08:26:14.655Z,1001.46
2016-08-20T08:27:14.640Z,1001.52
2016-08-20T08:28:14.627Z,1001.53
2016-08-20T08:29:14.612Z,1001.5
2016-08-20T08:30:14.596Z,1001.55
2016-08-20T08:31:14.580Z,1001.47
2016-08-20T08:32:14.567Z,1001.51
2016-08-20T08:33:14.602Z,1001.48
2016-08-20T08:34:14.537Z,1001.46
2016-08-20T08:35:14.522Z,1001.49
2016-08-20T08:36:14.507Z,1001.47
2016-08-20T08:37:14.490Z,1001.48
2016-08-20T08:38:14.490Z,1001.4
2016-08-20T08:39:14.462Z,1001.41
2016-08-20T08:40:14.449Z,1001.41
2016-08-20T08:41:14.433Z,1001.4
2016-08-20T08:42:14.419Z,1001.38
2016-08-20T08:43:14.404Z,1001.39
2016-08-20T08:44:14.389Z,1001.43
2016-08-20T08:45:14.374Z,1001.39
2016-08-20T08:46:14.361Z,1001.42
2016-08-20T08:47:14.346Z,1001.42
2016-08-20T08:48:14.331Z,1001.41
2016-08-20T08:49:14.318Z,1001.42
2016-08-20T08:50:14.304Z,1001.41
2016-08-20T08:51:14.290Z,1001.46
2016-08-20T08:52:14.276Z,1001.41
2016-08-20T08:53:14.263Z,1001.45
2016-08-20T08:54:14.249Z,1001.47
2016-08-20T08:55:14.235Z,1001.45
2016-08-20T08:56:14.222Z,1001.44
2016-08-20T08:57:14.210Z,1001.46
2016-08-20T08:58:14.195Z,1001.13
2016-08-20T08:59:14.183Z,1001.42
2016-08-20T09:00:14.169Z,1001.36
2016-08-20T09:01:14.157Z,1001.39
2016-08-20T09:02:14.149Z,1001.37
2016-08-20T09:03:14.130Z,1001.31
2016-08-20T09:04:14.119Z,1001.43
2016-08-20T09:05:14.106Z,1001.4
2016-08-20T09:06:14.092Z,1001.32
2016-08-20T09:07:14.079Z,1001.33
2016-08-20T09:08:14.068Z,1001.31
2016-08-20T09:09:14.054Z,1001.32
2016-08-20T09:10:14.040Z,1001.39
2016-08-20T09:11:14.026Z,1001.44
2016-08-20T09:12:14.013Z,1001.5
2016-08-20T09:13:13.998Z,1001.51
2016-08-20T09:14:13.987Z,1001.53
2016-08-20T09:15:13.973Z,1001.47
2016-08-20T09:16:13.959Z,1001.45
2016-08-20T09:17:13.949Z,1001.41
2016-08-20T09:18:13.932Z,1001.45
2016-08-20T09:19:13.919Z,1001.39
2016-08-20T09:20:13.907Z,1001.4
2016-08-20T09:21:13.891Z,1001.4
2016-08-20T09:22:13.877Z,1001.43
2016-08-20T09:23:13.864Z,1001.42
2016-08-20T09:24:13.850Z,1001.37
2016-08-20T09:25:13.835Z,1001.39
2016-08-20T09:26:13.823Z,1001.3
2016-08-20T09:27:13.812Z,1001.32
2016-08-20T09:28:13.795Z,1001.3
2016-08-20T09:29:13.781Z,1001.34
2016-08-20T09:30:13.768Z,1001.32
2016-08-20T09:31:13.758Z,1001.36
2016-08-20T09:32:13.743Z,1001.32
2016-08-20T09:33:13.728Z,1001.32
2016-08-20T09:34:13.715Z,1001.34
2016-08-20T09:35:13.703Z,1001.34
2016-08-20T09:36:13.688Z,1001.34
2016-08-20T09:37:13.677Z,1001.34
2016-08-20T09:38:13.662Z,1001.41
2016-08-20T09:39:13.649Z,1001.41
2016-08-20T09:40:13.636Z,1001.48
2016-08-20T09:41:13.625Z,1001.41
2016-08-20T09:42:13.612Z,1001.53
2016-08-20T09:43:13.598Z,1001.56
2016-08-20T09:44:13.589Z,1001.5
2016-08-20T09:45:13.571Z,1001.52
2016-08-20T09:46:13.558Z,1001.58
2016-08-20T09:47:13.559Z,1001.48
2016-08-20T09:48:13.533Z,1001.53
2016-08-20T09:49:13.520Z,1001.56
2016-08-20T09:50:13.507Z,1001.56
2016-08-20T09:51:13.495Z,1001.52
2016-08-20T09:52:13.481Z,1001.55
2016-08-20T09:53:13.469Z,1001.51
2016-08-20T09:54:13.456Z,1001.51
2016-08-20T09:55:13.443Z,1001.5
2016-08-20T09:56:13.430Z,1001.49
2016-08-20T09:57:13.416Z,1001.39
2016-08-20T09:58:13.404Z,1001.39
2016-08-20T09:59:13.391Z,1001.34
2016-08-20T10:00:13.378Z,1001.39
2016-08-20T10:01:13.365Z,1001.43
2016-08-20T10:02:13.353Z,1001.46
2016-08-20T10:03:13.345Z,1001.48
2016-08-20T10:04:13.328Z,1001.48
2016-08-20T10:05:13.314Z,1001.39
2016-08-20T10:06:13.302Z,1001.35
2016-08-20T10:07:13.290Z,1001.36
2016-08-20T10:08:13.276Z,1001.41
2016-08-20T10:09:13.263Z,1001.4
2016-08-20T10:10:13.251Z,1001.37
2016-08-20T10:11:13.239Z,1001.4
2016-08-20T10:12:13.225Z,1001.41
2016-08-20T10:13:13.212Z,1001.27
2016-08-20T10:14:13.199Z,1001.23
2016-08-20T10:15:13.187Z,1001.26
2016-08-20T10:16:13.174Z,1001.27
2016-08-20T10:17:13.161Z,1001.26
2016-08-20T10:18:13.147Z,1001.22
2016-08-20T10:19:13.134Z,1001.17
2016-08-20T10:20:13.122Z,1001.1
2016-08-20T10:21:13.109Z,1001.1
2016-08-20T10:22:13.096Z,1001.15
2016-08-20T10:23:13.082Z,1001.05
2016-08-20T10:24:13.071Z,1001.11
2016-08-20T10:25:13.058Z,1001.1
2016-08-20T10:26:13.046Z,1001.19
2016-08-20T10:27:13.032Z,1001.16
2016-08-20T10:28:13.020Z,1001.23
2016-08-20T10:29:13.008Z,1001.23
2016-08-20T10:30:12.995Z,1001.25
2016-08-20T10:31:12.982Z,1001.29
2016-08-20T10:32:12.971Z,1001.31
2016-08-20T10:33:12.958Z,1001.2
2016-08-20T10:34:12.946Z,1001.21
2016-08-20T10:35:12.934Z,1001.25
2016-08-20T10:36:12.921Z,1001.18
2016-08-20T10:37:12.909Z,1001.2
2016-08-20T10:38:12.897Z,1001.23
2016-08-20T10:39:12.886Z,1001.11
2016-08-20T10:40:12.875Z,1001.14
2016-08-20T10:41:12.860Z,1001.11
2016-08-20T10:42:12.848Z,1001.08
2016-08-20T10:43:12.836Z,1001.12
2016-08-20T10:44:12.823Z,1001.06
2016-08-20T10:45:12.811Z,1001.09
2016-08-20T10:46:12.799Z,1001.09
2016-08-20T10:47:12.786Z,1001.13
2016-08-20T10:48:12.773Z,1001.2
2016-08-20T10:49:12.760Z,1001.2
2016-08-20T10:50:12.748Z,1001.21
2016-08-20T10:51:12.736Z,1001.25
2016-08-20T10:52:12.723Z,1001.29
2016-08-20T10:53:12.710Z,1001.37
2016-08-20T10:54:12.698Z,1001.32
2016-08-20T10:55:12.686Z,1001.34
2016-08-20T10:56:12.674Z,1001.41
2016-08-20T10:57:12.663Z,1001.41
2016-08-20T10:58:12.649Z,1001.42
2016-08-20T10:59:12.637Z,1001.42
2016-08-20T11:00:12.625Z,1001.53
2016-08-20T11:01:12.612Z,1001.54
2016-08-20T11:02:12.608Z,1001.57
2016-08-20T11:03:12.588Z,1001.54
2016-08-20T11:04:12.577Z,1001.54
2016-08-20T11:05:12.566Z,1001.54
2016-08-20T11:06:12.557Z,1001.52
2016-08-20T11:07:12.542Z,1001.32
2016-08-20T11:08:12.532Z,1001.33
2016-08-20T11:09:12.521Z,1001.32
2016-08-20T11:10:12.509Z,1001.25
2016-08-20T11:11:12.497Z,1001.23
2016-08-20T11:12:12.535Z,1001.15
2016-08-20T11:13:12.475Z,1001.19
2016-08-20T11:14:12.462Z,1001.19
2016-08-20T11:15:12.451Z,1001.25
2016-08-20T11:16:12.439Z,1001.31
2016-08-20T11:17:12.428Z,1001.3
2016-08-20T11:18:12.417Z,1001.29
2016-08-20T11:19:12.405Z,1001.21
2016-08-20T11:20:12.394Z,1001.24
2016-08-20T11:21:12.382Z,1001.25
2016-08-20T11:22:12.372Z,1001.24
2016-08-20T11:23:12.359Z,1001.31
2016-08-20T11:24:12.350Z,1001.41
2016-08-20T11:25:12.583Z,1001.44
2016-08-20T11:26:12.327Z,1001.46
2016-08-20T11:27:12.315Z,1001.42
2016-08-20T11:28:12.304Z,1001.47
2016-08-20T11:29:12.293Z,1001.55
2016-08-20T11:30:12.280Z,1001.57
2016-08-20T11:31:12.270Z,1001.58
2016-08-20T11:32:12.259Z,1001.6
2016-08-20T11:33:12.248Z,1001.58
2016-08-20T11:34:12.238Z,1001.54
2016-08-20T11:35:12.226Z,1001.35
2016-08-20T11:36:12.214Z,1001.22
2016-08-20T11:37:12.204Z,1001.26
2016-08-20T11:38:12.227Z,1001.18
2016-08-20T11:39:12.182Z,1001.07
2016-08-20T11:40:12.169Z,1000.96
2016-08-20T11:41:12.158Z,1000.89
2016-08-20T11:42:12.148Z,1000.86
2016-08-20T11:43:12.136Z,1000.99
2016-08-20T11:44:12.124Z,1001.2
2016-08-20T11:45:12.113Z,1001.19
2016-08-20T11:46:12.104Z,1001.32
2016-08-20T11:47:12.092Z,1001.37
2016-08-20T11:48:12.081Z,1001.47
2016-08-20T11:49:12.070Z,1001.74
2016-08-20T11:50:12.060Z,1001.69
2016-08-20T11:51:12.145Z,1001.63
2016-08-20T11:52:12.038Z,1001.58
2016-08-20T11:53:12.027Z,1001.55
2016-08-20T11:54:12.270Z,1001.61
2016-08-20T11:55:12.004Z,1001.69
2016-08-20T11:56:11.993Z,1001.89
2016-08-20T11:57:11.980Z,1001.99
2016-08-20T11:58:11.966Z,1002.13
2016-08-20T11:59:11.956Z,1002.21
2016-08-20T12:00:11.943Z,1002.18
2016-08-20T12:01:11.930Z,1002.3
2016-08-20T12:02:11.919Z,1002.36
2016-08-20T12:03:11.907Z,1002.37
2016-08-20T12:04:11.895Z,1002.36
2016-08-20T12:05:11.882Z,1002.39
2016-08-20T12:06:11.868Z,1002.18
2016-08-20T12:07:11.856Z,1002.03
2016-08-20T12:08:11.844Z,1001.85
2016-08-20T12:09:11.830Z,1001.75
2016-08-20T12:10:11.823Z,1001.57